createdAt,value
2022-12-03T00:00:30.044Z,1.21
2022-12-03T00:01:01.491Z,1.21
2022-12-03T00:01:32.939Z,1.21
2022-12-03T00:02:04.483Z,1.19
2022-12-03T00:02:36.176Z,1.20
2022-12-03T00:03:07.849Z,1.20
2022-12-03T00:03:39.500Z,1.19
2022-12-03T00:04:11.735Z,1.20
2022-12-03T00:04:43.197Z,1.19
2022-12-03T00:05:14.688Z,1.20
2022-12-03T00:05:49.030Z,1.20
2022-12-03T00:06:20.954Z,1.20
2022-12-03T00:06:52.537Z,1.21
2022-12-03T00:07:24.077Z,1.19
2022-12-03T00:07:55.654Z,1.18
2022-12-03T00:08:27.157Z,1.17
2022-12-03T00:08:58.628Z,1.20
2022-12-03T00:09:30.213Z,1.19
2022-12-03T00:10:01.756Z,1.19
2022-12-03T00:10:33.206Z,1.18
2022-12-03T00:11:04.813Z,1.16
2022-12-03T00:11:36.255Z,1.16
2022-12-03T00:12:07.733Z,1.16
2022-12-03T00:12:39.205Z,1.16
2022-12-03T00:13:10.692Z,1.18
2022-12-03T00:13:42.321Z,1.17
2022-12-03T00:14:13.886Z,1.18
2022-12-03T00:14:45.343Z,1.20
2022-12-03T00:15:16.974Z,1.18
2022-12-03T00:15:48.570Z,1.19
2022-12-03T00:16:20.104Z,1.18
2022-12-03T00:16:51.684Z,1.19
2022-12-03T00:17:23.138Z,1.20
2022-12-03T00:17:54.700Z,1.20
2022-12-03T00:18:26.158Z,1.21
2022-12-03T00:18:57.775Z,1.21
2022-12-03T00:19:29.412Z,1.21
2022-12-03T00:20:00.845Z,1.23
2022-12-03T00:20:32.348Z,1.19
2022-12-03T00:21:04.937Z,1.20
2022-12-03T00:21:36.393Z,1.19
2022-12-03T00:22:07.833Z,1.18
2022-12-03T00:22:39.328Z,1.21
2022-12-03T00:23:10.992Z,1.23
2022-12-03T00:23:42.667Z,1.20
2022-12-03T00:24:14.202Z,1.20
2022-12-03T00:24:45.723Z,1.19
2022-12-03T00:25:17.610Z,1.18
2022-12-03T00:25:49.054Z,1.17
2022-12-03T00:26:20.941Z,1.17
2022-12-03T00:26:53.235Z,1.19
2022-12-03T00:27:24.740Z,1.17
2022-12-03T00:27:56.223Z,1.16
2022-12-03T00:28:27.704Z,1.16
2022-12-03T00:28:59.188Z,1.17
2022-12-03T00:29:30.657Z,1.18
2022-12-03T00:30:02.109Z,1.15
2022-12-03T00:30:33.617Z,1.14
2022-12-03T00:31:05.525Z,1.16
2022-12-03T00:31:37.107Z,1.18
2022-12-03T00:32:08.666Z,1.16
2022-12-03T00:32:40.104Z,1.18
2022-12-03T00:33:11.598Z,1.17
2022-12-03T00:33:43.048Z,1.18
2022-12-03T00:34:14.529Z,1.17
2022-12-03T00:34:46.105Z,1.19
2022-12-03T00:35:17.744Z,1.18
2022-12-03T00:35:49.265Z,1.19
2022-12-03T00:36:20.760Z,1.19
2022-12-03T00:36:52.211Z,1.20
2022-12-03T00:37:23.675Z,1.21
2022-12-03T00:37:55.966Z,1.20
2022-12-03T00:38:27.525Z,1.19
2022-12-03T00:38:59.094Z,1.20
2022-12-03T00:39:30.605Z,1.20
2022-12-03T00:40:04.262Z,1.19
2022-12-03T00:40:35.735Z,1.21
2022-12-03T00:41:07.396Z,1.22
2022-12-03T00:41:38.836Z,1.19
2022-12-03T00:42:10.285Z,1.16
2022-12-03T00:42:41.925Z,1.13
2022-12-03T00:43:13.469Z,1.13
2022-12-03T00:43:44.955Z,1.14
2022-12-03T00:44:16.758Z,1.14
2022-12-03T00:44:48.402Z,1.15
2022-12-03T00:45:19.873Z,1.14
2022-12-03T00:45:51.409Z,1.17
2022-12-03T00:46:24.385Z,1.18
2022-12-03T00:46:55.986Z,1.16
2022-12-03T00:47:27.504Z,1.15
2022-12-03T00:47:59.061Z,1.13
2022-12-03T00:48:30.512Z,1.11
2022-12-03T00:49:02.889Z,1.14
2022-12-03T00:49:34.388Z,1.11
2022-12-03T00:50:06.652Z,1.11
2022-12-03T00:50:38.264Z,1.10
2022-12-03T00:51:09.733Z,1.09
2022-12-03T00:51:41.216Z,1.11
2022-12-03T00:52:12.690Z,1.10
2022-12-03T00:52:44.259Z,1.08
2022-12-03T00:53:15.745Z,1.09
2022-12-03T00:53:47.221Z,1.11
2022-12-03T00:54:18.656Z,1.12
2022-12-03T00:54:50.385Z,1.14
2022-12-03T00:55:22.198Z,1.14
2022-12-03T00:55:53.631Z,1.15
2022-12-03T00:56:25.136Z,1.15
2022-12-03T00:56:56.658Z,1.14
2022-12-03T00:57:28.161Z,1.13
2022-12-03T00:57:59.665Z,1.13
2022-12-03T00:58:31.105Z,1.11
2022-12-03T00:59:02.550Z,1.11
2022-12-03T00:59:34.045Z,1.13
2022-12-03T01:00:06.404Z,1.11
2022-12-03T01:00:38.053Z,1.14
2022-12-03T01:01:09.531Z,1.15
2022-12-03T01:01:41.098Z,1.16
2022-12-03T01:02:12.655Z,1.17
2022-12-03T01:02:44.178Z,1.18
2022-12-03T01:03:15.655Z,1.16
2022-12-03T01:03:47.114Z,1.14
2022-12-03T01:04:18.718Z,1.15
2022-12-03T01:04:50.503Z,1.13
2022-12-03T01:05:22.250Z,1.12
2022-12-03T01:05:53.777Z,1.12
2022-12-03T01:06:25.230Z,1.12
2022-12-03T01:06:56.716Z,1.13
2022-12-03T01:07:28.208Z,1.16
2022-12-03T01:07:59.826Z,1.13
2022-12-03T01:08:31.346Z,1.11
2022-12-03T01:09:03.066Z,1.12
2022-12-03T01:09:34.765Z,1.12
2022-12-03T01:10:07.017Z,1.14
2022-12-03T01:10:38.534Z,1.17
2022-12-03T01:11:30.082Z,1.17
2022-12-03T01:12:01.577Z,1.16
2022-12-03T01:12:33.022Z,1.16
2022-12-03T01:13:04.475Z,1.16
2022-12-03T01:13:35.942Z,1.19
2022-12-03T01:14:10.374Z,1.19
2022-12-03T01:14:41.812Z,1.19
2022-12-03T01:15:13.315Z,1.19
2022-12-03T01:15:44.807Z,1.17
2022-12-03T01:16:16.352Z,1.18
2022-12-03T01:16:48.395Z,1.17
2022-12-03T01:17:20.116Z,1.14
2022-12-03T01:17:51.633Z,1.14
2022-12-03T01:18:23.146Z,1.16
2022-12-03T01:18:54.746Z,1.17
2022-12-03T01:19:26.220Z,1.17
2022-12-03T01:19:59.090Z,1.17
2022-12-03T01:20:30.577Z,1.17
2022-12-03T01:21:02.028Z,1.17
2022-12-03T01:21:33.876Z,1.18
2022-12-03T01:22:05.324Z,1.18
2022-12-03T01:22:36.874Z,1.20
2022-12-03T01:23:08.412Z,1.20
2022-12-03T01:23:39.867Z,1.20
2022-12-03T01:24:11.467Z,1.22
2022-12-03T01:24:43.812Z,1.21
2022-12-03T01:25:15.453Z,1.20
2022-12-03T01:25:46.927Z,1.21
2022-12-03T01:26:18.389Z,1.20
2022-12-03T01:26:49.917Z,1.19
2022-12-03T01:27:21.368Z,1.19
2022-12-03T01:27:53.099Z,1.17
2022-12-03T01:28:24.613Z,1.18
2022-12-03T01:28:56.097Z,1.19
2022-12-03T01:29:27.676Z,1.20
2022-12-03T01:29:59.092Z,1.20
2022-12-03T01:30:50.602Z,1.22
2022-12-03T01:31:42.406Z,1.21
2022-12-03T01:32:16.727Z,1.21
2022-12-03T01:32:48.185Z,1.20
2022-12-03T01:33:19.670Z,1.20
2022-12-03T01:33:51.112Z,1.21
2022-12-03T01:34:22.564Z,1.21
2022-12-03T01:34:55.739Z,1.23
2022-12-03T01:35:27.531Z,1.21
2022-12-03T01:35:58.978Z,1.21
2022-12-03T01:36:30.517Z,1.21
2022-12-03T01:37:02.121Z,1.19
2022-12-03T01:37:33.774Z,1.18
2022-12-03T01:38:05.234Z,1.18
2022-12-03T01:38:36.702Z,1.18
2022-12-03T01:39:08.317Z,1.17
2022-12-03T01:39:40.283Z,1.19
2022-12-03T01:40:13.793Z,1.20
2022-12-03T01:40:45.252Z,1.21
2022-12-03T01:41:17.840Z,1.21
2022-12-03T01:41:50.519Z,1.22
2022-12-03T01:42:28.132Z,1.23
2022-12-03T01:42:59.605Z,1.24
2022-12-03T01:43:31.289Z,1.24
2022-12-03T01:44:04.592Z,1.28
2022-12-03T01:44:37.274Z,1.28
2022-12-03T01:45:21.377Z,1.31
2022-12-03T01:45:52.914Z,1.30
2022-12-03T01:46:37.768Z,1.30
2022-12-03T01:47:14.124Z,1.27
2022-12-03T01:47:45.605Z,1.27
2022-12-03T01:48:17.307Z,1.26
2022-12-03T01:48:50.634Z,1.23
2022-12-03T01:49:26.441Z,1.22
2022-12-03T01:50:21.022Z,1.19
2022-12-03T01:50:52.486Z,1.21
2022-12-03T01:51:24.013Z,1.20
2022-12-03T01:51:56.559Z,1.23
2022-12-03T01:52:31.589Z,1.22
2022-12-03T01:53:04.503Z,1.23
2022-12-03T01:53:36.294Z,1.23
2022-12-03T01:54:16.260Z,1.23
2022-12-03T01:54:51.455Z,1.20
2022-12-03T01:55:24.436Z,1.21
2022-12-03T01:55:55.982Z,1.21
2022-12-03T01:56:27.860Z,1.23
2022-12-03T01:56:59.392Z,1.23
2022-12-03T01:57:40.805Z,1.20
2022-12-03T01:58:14.320Z,1.24
2022-12-03T01:58:46.448Z,1.23
2022-12-03T01:59:19.698Z,1.25
2022-12-03T01:59:52.884Z,1.27
2022-12-03T02:00:27.053Z,1.24
2022-12-03T02:01:02.050Z,1.26
2022-12-03T02:01:33.598Z,1.21
2022-12-03T02:02:12.628Z,1.20
2022-12-03T02:02:45.564Z,1.21
2022-12-03T02:03:19.685Z,1.22
2022-12-03T02:03:51.467Z,1.23
2022-12-03T02:04:23.712Z,1.25
2022-12-03T02:04:56.342Z,1.24
2022-12-03T02:05:31.857Z,1.22
2022-12-03T02:06:03.518Z,1.24
2022-12-03T02:06:35.040Z,1.26
2022-12-03T02:07:33.556Z,1.24
2022-12-03T02:08:29.510Z,1.25
2022-12-03T02:09:01.063Z,1.23
2022-12-03T02:09:32.507Z,1.21
2022-12-03T02:10:04.528Z,1.23
2022-12-03T02:10:37.671Z,1.19
2022-12-03T02:11:30.136Z,1.23
2022-12-03T02:12:01.569Z,1.27
2022-12-03T02:12:39.994Z,1.29
2022-12-03T02:13:11.669Z,1.28
2022-12-03T02:13:43.531Z,1.30
2022-12-03T02:14:20.325Z,1.30
2022-12-03T02:14:52.308Z,1.33
2022-12-03T02:15:24.168Z,1.34
2022-12-03T02:15:55.694Z,1.34
2022-12-03T02:16:27.370Z,1.32
2022-12-03T02:17:00.259Z,1.26
2022-12-03T02:17:32.021Z,1.29
2022-12-03T02:18:03.656Z,1.33
2022-12-03T02:18:35.158Z,1.31
2022-12-03T02:19:24.904Z,1.31
2022-12-03T02:19:56.488Z,1.29
2022-12-03T02:20:28.006Z,1.30
2022-12-03T02:21:09.806Z,1.31
2022-12-03T02:22:07.605Z,1.29
2022-12-03T02:23:07.227Z,1.29
2022-12-03T02:23:57.863Z,1.25
2022-12-03T02:24:36.737Z,1.29
2022-12-03T02:25:23.663Z,1.29
2022-12-03T02:25:55.183Z,1.28
2022-12-03T02:26:26.728Z,1.30
2022-12-03T02:26:58.174Z,1.31
2022-12-03T02:27:29.779Z,1.26
2022-12-03T02:28:01.945Z,1.25
2022-12-03T02:28:33.439Z,1.29
2022-12-03T02:29:04.965Z,1.30
2022-12-03T02:29:36.843Z,1.32
2022-12-03T02:30:09.668Z,1.30
2022-12-03T02:30:41.143Z,1.33
2022-12-03T02:31:12.768Z,1.29
2022-12-03T02:31:44.661Z,1.28
2022-12-03T02:32:16.142Z,1.28
2022-12-03T02:32:48.638Z,1.28
2022-12-03T02:33:20.115Z,1.30
2022-12-03T02:33:51.608Z,1.29
2022-12-03T02:34:43.621Z,1.28
2022-12-03T02:35:17.200Z,1.31
2022-12-03T02:35:48.960Z,1.30
2022-12-03T02:36:20.806Z,1.31
2022-12-03T02:36:52.249Z,1.28
2022-12-03T02:37:33.700Z,1.31
2022-12-03T02:38:15.443Z,1.29
2022-12-03T02:38:48.031Z,1.28
2022-12-03T02:39:19.627Z,1.31
2022-12-03T02:39:54.943Z,1.31
2022-12-03T02:40:29.332Z,1.32
2022-12-03T02:41:04.659Z,1.36
2022-12-03T02:41:54.681Z,1.30
2022-12-03T02:42:35.434Z,1.38
2022-12-03T02:43:06.962Z,1.36
2022-12-03T02:43:38.545Z,1.41
2022-12-03T02:44:10.304Z,1.41
2022-12-03T02:44:41.784Z,1.38
2022-12-03T02:45:26.361Z,1.38
2022-12-03T02:46:00.320Z,1.38
2022-12-03T02:46:32.017Z,1.37
2022-12-03T02:47:03.765Z,1.37
2022-12-03T02:47:38.723Z,1.34
2022-12-03T02:48:14.321Z,1.32
2022-12-03T02:48:45.771Z,1.28
2022-12-03T02:49:17.221Z,1.27
2022-12-03T02:49:49.347Z,1.19
2022-12-03T02:50:24.873Z,1.24
2022-12-03T02:50:59.770Z,1.28
2022-12-03T02:51:31.416Z,1.30
2022-12-03T02:52:03.463Z,1.30
2022-12-03T02:52:35.118Z,1.27
2022-12-03T02:53:19.485Z,1.28
2022-12-03T02:53:52.185Z,1.23
2022-12-03T02:54:23.904Z,1.26
2022-12-03T02:54:55.813Z,1.26
2022-12-03T02:55:33.505Z,1.24
2022-12-03T02:56:09.073Z,1.26
2022-12-03T02:56:40.644Z,1.26
2022-12-03T02:57:12.145Z,1.25
2022-12-03T02:57:46.005Z,1.24
2022-12-03T02:58:18.027Z,1.24
2022-12-03T02:58:51.939Z,1.21
2022-12-03T02:59:23.603Z,1.23
2022-12-03T02:59:55.142Z,1.23
2022-12-03T03:00:26.797Z,1.21
2022-12-03T03:00:59.068Z,1.18
2022-12-03T03:01:31.115Z,1.23
2022-12-03T03:02:02.718Z,1.26
2022-12-03T03:02:34.746Z,1.27
2022-12-03T03:03:06.810Z,1.27
2022-12-03T03:03:38.556Z,1.28
2022-12-03T03:04:10.133Z,1.29
2022-12-03T03:04:42.039Z,1.27
2022-12-03T03:05:14.071Z,1.27
2022-12-03T03:05:45.558Z,1.28
2022-12-03T03:06:18.352Z,1.29
2022-12-03T03:06:49.808Z,1.30
2022-12-03T03:07:21.478Z,1.27
2022-12-03T03:07:53.085Z,1.21
2022-12-03T03:08:25.476Z,1.20
2022-12-03T03:08:57.298Z,1.19
2022-12-03T03:09:28.764Z,1.23
2022-12-03T03:10:01.071Z,1.23
2022-12-03T03:10:33.275Z,1.19
2022-12-03T03:11:05.034Z,1.23
2022-12-03T03:11:36.506Z,1.25
2022-12-03T03:12:08.230Z,1.24
2022-12-03T03:12:40.055Z,1.24
2022-12-03T03:13:19.073Z,1.23
2022-12-03T03:13:50.568Z,1.21
2022-12-03T03:14:22.067Z,1.23
2022-12-03T03:14:53.861Z,1.21
2022-12-03T03:15:25.584Z,1.18
2022-12-03T03:15:57.265Z,1.24
2022-12-03T03:16:28.888Z,1.24
2022-12-03T03:17:00.483Z,1.23
2022-12-03T03:17:32.217Z,1.28
2022-12-03T03:18:04.718Z,1.24
2022-12-03T03:18:36.625Z,1.19
2022-12-03T03:19:08.600Z,1.23
2022-12-03T03:19:40.097Z,1.23
2022-12-03T03:20:12.354Z,1.25
2022-12-03T03:20:44.209Z,1.23
2022-12-03T03:21:15.693Z,1.17
2022-12-03T03:21:47.263Z,1.23
2022-12-03T03:22:18.789Z,1.21
2022-12-03T03:22:50.285Z,1.24
2022-12-03T03:23:23.349Z,1.25
2022-12-03T03:23:54.801Z,1.21
2022-12-03T03:24:26.668Z,1.14
2022-12-03T03:24:58.123Z,1.18
2022-12-03T03:25:29.617Z,1.20
2022-12-03T03:26:03.812Z,1.23
2022-12-03T03:26:35.514Z,1.23
2022-12-03T03:27:07.173Z,1.14
2022-12-03T03:27:40.287Z,1.23
2022-12-03T03:28:12.119Z,1.21
2022-12-03T03:28:46.982Z,1.18
2022-12-03T03:29:19.072Z,1.14
2022-12-03T03:29:50.994Z,1.13
2022-12-03T03:30:22.469Z,1.12
2022-12-03T03:30:54.193Z,1.14
2022-12-03T03:31:25.743Z,1.18
2022-12-03T03:31:58.205Z,1.14
2022-12-03T03:32:30.481Z,1.20
2022-12-03T03:33:02.001Z,1.16
2022-12-03T03:33:33.887Z,1.13
2022-12-03T03:34:05.380Z,1.08
2022-12-03T03:34:36.850Z,1.19
2022-12-03T03:35:09.891Z,1.18
2022-12-03T03:35:42.241Z,1.13
2022-12-03T03:36:14.376Z,1.22
2022-12-03T03:36:46.142Z,1.21
2022-12-03T03:37:17.588Z,1.21
2022-12-03T03:37:49.107Z,1.18
2022-12-03T03:38:21.131Z,1.20
2022-12-03T03:38:52.937Z,1.13
2022-12-03T03:39:24.712Z,1.08
2022-12-03T03:39:56.188Z,1.12
2022-12-03T03:40:28.172Z,1.11
2022-12-03T03:41:02.198Z,1.11
2022-12-03T03:41:34.377Z,1.12
2022-12-03T03:42:05.860Z,1.11
2022-12-03T03:42:37.931Z,1.08
2022-12-03T03:43:09.606Z,1.10
2022-12-03T03:43:42.508Z,1.09
2022-12-03T03:44:14.253Z,1.09
2022-12-03T03:44:48.009Z,1.05
2022-12-03T03:45:24.004Z,1.02
2022-12-03T03:45:59.039Z,1.03
2022-12-03T03:46:33.163Z,1.02
2022-12-03T03:47:04.836Z,1.03
2022-12-03T03:47:36.957Z,1.02
2022-12-03T03:48:08.503Z,1.03
2022-12-03T03:48:41.617Z,1.06
2022-12-03T03:49:13.244Z,1.08
2022-12-03T03:49:44.793Z,1.09
2022-12-03T03:50:16.432Z,1.08
2022-12-03T03:50:48.225Z,1.10
2022-12-03T03:51:20.069Z,1.11
2022-12-03T03:51:51.617Z,1.09
2022-12-03T03:52:23.221Z,1.08
2022-12-03T03:52:55.396Z,1.08
2022-12-03T03:53:26.978Z,1.04
2022-12-03T03:53:58.617Z,1.01
2022-12-03T03:54:30.610Z,0.99
2022-12-03T03:55:02.185Z,1.00
2022-12-03T03:55:34.076Z,1.03
2022-12-03T03:56:06.168Z,1.06
2022-12-03T03:56:37.671Z,1.06
2022-12-03T03:57:09.163Z,1.08
2022-12-03T03:57:40.734Z,1.08
2022-12-03T03:58:12.357Z,1.03
2022-12-03T03:58:43.882Z,1.02
2022-12-03T03:59:15.777Z,1.02
2022-12-03T03:59:47.240Z,1.04
2022-12-03T04:00:19.096Z,1.05
2022-12-03T04:00:51.746Z,1.06
2022-12-03T04:01:23.881Z,1.08
2022-12-03T04:01:55.454Z,1.05
2022-12-03T04:02:27.429Z,1.04
2022-12-03T04:02:58.895Z,1.05
2022-12-03T04:03:30.371Z,1.05
2022-12-03T04:04:02.006Z,1.02
2022-12-03T04:04:35.576Z,1.05
2022-12-03T04:05:08.033Z,1.03
2022-12-03T04:05:39.939Z,1.02
2022-12-03T04:06:11.472Z,1.02
2022-12-03T04:06:42.951Z,1.00
2022-12-03T04:07:15.706Z,0.97
2022-12-03T04:07:47.439Z,0.96
2022-12-03T04:08:19.479Z,0.96
2022-12-03T04:08:51.068Z,0.97
2022-12-03T04:09:22.513Z,0.92
2022-12-03T04:09:54.006Z,0.98
2022-12-03T04:10:43.789Z,1.02
2022-12-03T04:11:33.978Z,0.99
2022-12-03T04:12:24.065Z,1.01
2022-12-03T04:12:55.570Z,0.96
2022-12-03T04:13:27.104Z,0.96
2022-12-03T04:13:58.541Z,0.99
2022-12-03T04:14:30.002Z,1.00
2022-12-03T04:15:01.697Z,1.00
2022-12-03T04:15:33.203Z,1.00
2022-12-03T04:16:04.936Z,1.01
2022-12-03T04:16:36.477Z,0.99
2022-12-03T04:17:08.085Z,1.00
2022-12-03T04:17:39.550Z,0.99
2022-12-03T04:18:29.777Z,0.99
2022-12-03T04:19:01.241Z,0.97
2022-12-03T04:19:32.689Z,0.90
2022-12-03T04:20:04.948Z,0.93
2022-12-03T04:20:37.526Z,1.00
2022-12-03T04:21:35.736Z,1.01
2022-12-03T04:22:25.734Z,1.02
2022-12-03T04:22:57.219Z,1.01
2022-12-03T04:23:31.039Z,1.02
2022-12-03T04:24:03.462Z,1.02
2022-12-03T04:24:34.958Z,1.05
2022-12-03T04:25:27.105Z,1.05
2022-12-03T04:26:17.178Z,1.03
2022-12-03T04:27:07.140Z,1.04
2022-12-03T04:27:57.174Z,1.01
2022-12-03T04:28:47.926Z,0.98
2022-12-03T04:29:20.132Z,0.97
2022-12-03T04:29:51.614Z,0.98
2022-12-03T04:30:23.204Z,0.97
2022-12-03T04:30:54.778Z,0.97
2022-12-03T04:31:52.281Z,0.99
2022-12-03T04:32:42.045Z,0.99
2022-12-03T04:33:32.030Z,0.99
2022-12-03T04:34:21.957Z,1.00
2022-12-03T04:35:12.001Z,1.03
2022-12-03T04:35:43.584Z,0.99
2022-12-03T04:36:15.054Z,0.97
2022-12-03T04:36:47.133Z,0.97
2022-12-03T04:37:18.778Z,0.93
2022-12-03T04:37:50.292Z,0.91
2022-12-03T04:38:21.763Z,0.91
2022-12-03T04:39:11.829Z,0.92
2022-12-03T04:39:43.311Z,0.91
2022-12-03T04:40:33.462Z,0.91
2022-12-03T04:41:05.062Z,0.88
2022-12-03T04:41:36.609Z,0.89
2022-12-03T04:42:08.295Z,0.89
2022-12-03T04:42:39.827Z,0.87
2022-12-03T04:43:11.280Z,0.84
2022-12-03T04:44:01.326Z,0.84
2022-12-03T04:44:33.448Z,0.85
2022-12-03T04:45:05.254Z,0.85
2022-12-03T04:45:36.783Z,0.82
2022-12-03T04:46:08.358Z,0.82
2022-12-03T04:46:39.877Z,0.81
2022-12-03T04:47:16.560Z,0.79
2022-12-03T04:47:48.034Z,0.80
2022-12-03T04:48:19.504Z,0.80
2022-12-03T04:48:51.002Z,0.80
2022-12-03T04:49:22.716Z,0.77
2022-12-03T04:49:54.410Z,0.76
2022-12-03T04:50:25.887Z,0.75
2022-12-03T04:50:57.422Z,0.74
2022-12-03T04:51:28.938Z,0.74
2022-12-03T04:52:00.430Z,0.72
2022-12-03T04:52:31.870Z,0.73
2022-12-03T04:53:03.740Z,0.72
2022-12-03T04:53:36.300Z,0.68
2022-12-03T04:54:07.966Z,0.68
2022-12-03T04:54:40.354Z,0.67
2022-12-03T04:55:11.881Z,0.70
2022-12-03T04:55:43.413Z,0.72
2022-12-03T04:56:14.837Z,0.71
2022-12-03T04:56:46.585Z,0.70
2022-12-03T04:57:18.031Z,0.74
2022-12-03T04:57:49.479Z,0.73
2022-12-03T04:58:20.929Z,0.73
2022-12-03T04:58:52.523Z,0.69
2022-12-03T04:59:24.158Z,0.67
2022-12-03T04:59:55.601Z,0.67
2022-12-03T05:00:28.340Z,0.69
2022-12-03T05:00:59.905Z,0.68
2022-12-03T05:01:31.455Z,0.72
2022-12-03T05:02:04.243Z,0.74
2022-12-03T05:02:37.396Z,0.77
2022-12-03T05:03:09.114Z,0.74
2022-12-03T05:03:40.597Z,0.74
2022-12-03T05:04:13.247Z,0.78
2022-12-03T05:04:44.763Z,0.78
2022-12-03T05:05:16.337Z,0.77
2022-12-03T05:05:47.860Z,0.78
2022-12-03T05:06:19.345Z,0.79
2022-12-03T05:06:50.908Z,0.83
2022-12-03T05:07:22.357Z,0.83
2022-12-03T05:07:53.917Z,0.80
2022-12-03T05:08:25.540Z,0.83
2022-12-03T05:08:57.051Z,0.82
2022-12-03T05:09:29.050Z,0.80
2022-12-03T05:10:00.526Z,0.77
2022-12-03T05:10:32.028Z,0.75
2022-12-03T05:11:03.498Z,0.71
2022-12-03T05:11:35.117Z,0.72
2022-12-03T05:12:06.706Z,0.71
2022-12-03T05:12:38.233Z,0.73
2022-12-03T05:13:09.741Z,0.71
2022-12-03T05:13:43.019Z,0.73
2022-12-03T05:14:14.864Z,0.76
2022-12-03T05:14:46.340Z,0.76
2022-12-03T05:15:17.979Z,0.76
2022-12-03T05:15:49.901Z,0.76
2022-12-03T05:16:21.519Z,0.74
2022-12-03T05:16:53.080Z,0.74
2022-12-03T05:17:24.619Z,0.76
2022-12-03T05:17:56.095Z,0.79
2022-12-03T05:18:27.545Z,0.79
2022-12-03T05:19:00.131Z,0.79
2022-12-03T05:19:50.184Z,0.78
2022-12-03T05:20:39.996Z,0.77
2022-12-03T05:21:11.515Z,0.78
2022-12-03T05:21:42.987Z,0.78
2022-12-03T05:22:14.438Z,0.78
2022-12-03T05:22:46.828Z,0.79
2022-12-03T05:23:18.410Z,0.75
2022-12-03T05:23:50.979Z,0.74
2022-12-03T05:24:22.418Z,0.72
2022-12-03T05:24:54.201Z,0.73
2022-12-03T05:25:25.794Z,0.73
2022-12-03T05:25:57.337Z,0.72
2022-12-03T05:26:28.865Z,0.71
2022-12-03T05:27:00.340Z,0.76
2022-12-03T05:27:31.775Z,0.78
2022-12-03T05:28:04.052Z,0.76
2022-12-03T05:28:35.617Z,0.78
2022-12-03T05:29:07.099Z,0.77
2022-12-03T05:29:38.633Z,0.77
2022-12-03T05:30:10.610Z,0.80
2022-12-03T05:30:42.208Z,0.79
2022-12-03T05:31:13.819Z,0.82
2022-12-03T05:31:45.388Z,0.84
2022-12-03T05:32:16.868Z,0.82
2022-12-03T05:32:48.391Z,0.82
2022-12-03T05:33:20.572Z,0.78
2022-12-03T05:33:52.185Z,0.77
2022-12-03T05:34:23.717Z,0.74
2022-12-03T05:34:55.571Z,0.74
2022-12-03T05:35:27.609Z,0.73
2022-12-03T05:35:59.126Z,0.74
2022-12-03T05:36:30.632Z,0.73
2022-12-03T05:37:02.233Z,0.73
2022-12-03T05:37:33.682Z,0.71
2022-12-03T05:38:05.187Z,0.71
2022-12-03T05:38:36.654Z,0.73
2022-12-03T05:39:08.094Z,0.70
2022-12-03T05:39:39.553Z,0.70
2022-12-03T05:40:12.179Z,0.70
2022-12-03T05:40:43.650Z,0.68
2022-12-03T05:41:34.062Z,0.66
2022-12-03T05:42:24.154Z,0.66
2022-12-03T05:42:56.994Z,0.65
2022-12-03T05:43:28.534Z,0.67
2022-12-03T05:44:00.009Z,0.67
2022-12-03T05:44:31.772Z,0.69
2022-12-03T05:45:03.767Z,0.69
2022-12-03T05:45:42.581Z,0.71
2022-12-03T05:46:14.109Z,0.73
2022-12-03T05:46:45.671Z,0.73
2022-12-03T05:47:17.212Z,0.71
2022-12-03T05:47:48.756Z,0.70
2022-12-03T05:48:20.280Z,0.70
2022-12-03T05:48:51.724Z,0.70
2022-12-03T05:49:23.174Z,0.72
2022-12-03T05:49:54.616Z,0.73
2022-12-03T05:50:28.923Z,0.72
2022-12-03T05:51:00.380Z,0.72
2022-12-03T05:51:31.831Z,0.71
2022-12-03T05:52:03.389Z,0.70
2022-12-03T05:52:34.892Z,0.73
2022-12-03T05:53:06.405Z,0.69
2022-12-03T05:53:37.986Z,0.65
2022-12-03T05:54:09.526Z,0.65
2022-12-03T05:54:40.996Z,0.65
2022-12-03T05:55:12.533Z,0.64
2022-12-03T05:55:44.004Z,0.61
2022-12-03T05:56:15.449Z,0.63
2022-12-03T05:56:46.890Z,0.64
2022-12-03T05:57:18.548Z,0.66
2022-12-03T05:57:50.298Z,0.66
2022-12-03T05:58:21.754Z,0.68
2022-12-03T05:58:53.293Z,0.69
2022-12-03T05:59:26.061Z,0.68
2022-12-03T05:59:57.640Z,0.64
2022-12-03T06:00:31.405Z,0.63
2022-12-03T06:01:03.033Z,0.63
2022-12-03T06:01:34.519Z,0.59
2022-12-03T06:02:06.019Z,0.56
2022-12-03T06:02:37.610Z,0.58
2022-12-03T06:03:09.318Z,0.62
2022-12-03T06:03:40.992Z,0.65
2022-12-03T06:04:12.538Z,0.61
2022-12-03T06:04:44.719Z,0.59
2022-12-03T06:05:19.413Z,0.61
2022-12-03T06:05:50.981Z,0.61
2022-12-03T06:06:22.405Z,0.63
2022-12-03T06:06:54.502Z,0.61
2022-12-03T06:07:26.362Z,0.58
2022-12-03T06:07:57.906Z,0.60
2022-12-03T06:08:29.552Z,0.61
2022-12-03T06:09:01.065Z,0.63
2022-12-03T06:09:32.528Z,0.67
2022-12-03T06:10:05.465Z,0.64
2022-12-03T06:10:37.544Z,0.64
2022-12-03T06:11:09.015Z,0.65
2022-12-03T06:11:41.295Z,0.66
2022-12-03T06:12:12.749Z,0.67
2022-12-03T06:12:44.348Z,0.68
2022-12-03T06:13:16.252Z,0.69
2022-12-03T06:13:47.693Z,0.68
2022-12-03T06:14:19.128Z,0.70
2022-12-03T06:14:50.810Z,0.72
2022-12-03T06:15:22.659Z,0.72
2022-12-03T06:15:54.147Z,0.72
2022-12-03T06:16:25.703Z,0.71
2022-12-03T06:16:57.182Z,0.68
2022-12-03T06:17:28.669Z,0.67
2022-12-03T06:18:00.117Z,0.69
2022-12-03T06:18:31.558Z,0.71
2022-12-03T06:19:03.029Z,0.71
2022-12-03T06:19:34.738Z,0.72
2022-12-03T06:20:07.318Z,0.73
2022-12-03T06:20:39.023Z,0.70
2022-12-03T06:21:10.523Z,0.64
2022-12-03T06:21:41.966Z,0.59
2022-12-03T06:22:13.486Z,0.58
2022-12-03T06:22:45.125Z,0.55
2022-12-03T06:23:16.586Z,0.54
2022-12-03T06:23:48.024Z,0.52
2022-12-03T06:24:19.474Z,0.52
2022-12-03T06:24:51.309Z,0.54
2022-12-03T06:25:23.119Z,0.55
2022-12-03T06:25:54.639Z,0.55
2022-12-03T06:26:26.081Z,0.58
2022-12-03T06:26:57.530Z,0.58
2022-12-03T06:27:29.012Z,0.57
2022-12-03T06:28:00.476Z,0.52
2022-12-03T06:28:31.947Z,0.52
2022-12-03T06:29:03.461Z,0.50
2022-12-03T06:29:35.084Z,0.51
2022-12-03T06:30:08.598Z,0.51
2022-12-03T06:30:40.218Z,0.51
2022-12-03T06:31:12.589Z,0.54
2022-12-03T06:31:44.367Z,0.54
2022-12-03T06:32:15.947Z,0.51
2022-12-03T06:32:47.450Z,0.50
2022-12-03T06:33:18.905Z,0.52
2022-12-03T06:33:50.356Z,0.53
2022-12-03T06:34:21.822Z,0.51
2022-12-03T06:34:53.578Z,0.53
2022-12-03T06:35:25.252Z,0.52
2022-12-03T06:35:56.765Z,0.51
2022-12-03T06:36:28.281Z,0.52
2022-12-03T06:36:59.809Z,0.52
2022-12-03T06:37:31.339Z,0.53
2022-12-03T06:38:02.926Z,0.53
2022-12-03T06:38:34.368Z,0.53
2022-12-03T06:39:05.826Z,0.53
2022-12-03T06:39:37.276Z,0.53
2022-12-03T06:40:09.185Z,0.55
2022-12-03T06:40:40.662Z,0.52
2022-12-03T06:41:12.354Z,0.47
2022-12-03T06:41:43.872Z,0.50
2022-12-03T06:42:15.326Z,0.54
2022-12-03T06:42:46.982Z,0.52
2022-12-03T06:43:18.460Z,0.52
2022-12-03T06:43:49.890Z,0.50
2022-12-03T06:44:21.544Z,0.50
2022-12-03T06:44:53.362Z,0.49
2022-12-03T06:45:24.957Z,0.50
2022-12-03T06:45:56.718Z,0.49
2022-12-03T06:46:29.003Z,0.51
2022-12-03T06:47:00.636Z,0.49
2022-12-03T06:47:32.167Z,0.50
2022-12-03T06:48:03.778Z,0.50
2022-12-03T06:48:35.337Z,0.54
2022-12-03T06:49:09.146Z,0.52
2022-12-03T06:49:40.652Z,0.51
2022-12-03T06:50:13.328Z,0.50
2022-12-03T06:50:44.801Z,0.53
2022-12-03T06:51:19.143Z,0.56
2022-12-03T06:51:50.639Z,0.55
2022-12-03T06:52:22.371Z,0.57
2022-12-03T06:52:53.877Z,0.56
2022-12-03T06:53:25.330Z,0.53
2022-12-03T06:53:56.821Z,0.56
2022-12-03T06:54:28.412Z,0.54
2022-12-03T06:55:00.045Z,0.53
2022-12-03T06:55:31.518Z,0.50
2022-12-03T06:56:02.990Z,0.53
2022-12-03T06:56:39.118Z,0.58
2022-12-03T06:57:15.020Z,0.56
2022-12-03T06:57:46.538Z,0.58
2022-12-03T06:58:18.008Z,0.59
2022-12-03T06:58:49.477Z,0.61
2022-12-03T06:59:20.992Z,0.59
2022-12-03T06:59:52.800Z,0.54
2022-12-03T07:00:24.490Z,0.52
2022-12-03T07:00:55.957Z,0.52
2022-12-03T07:01:27.433Z,0.55
2022-12-03T07:01:58.962Z,0.54
2022-12-03T07:02:30.517Z,0.52
2022-12-03T07:03:02.391Z,0.52
2022-12-03T07:03:33.903Z,0.46
2022-12-03T07:04:05.598Z,0.50
2022-12-03T07:04:38.368Z,0.54
2022-12-03T07:05:11.619Z,0.53
2022-12-03T07:05:43.072Z,0.53
2022-12-03T07:06:14.864Z,0.52
2022-12-03T07:06:46.313Z,0.54
2022-12-03T07:07:18.666Z,0.57
2022-12-03T07:07:52.255Z,0.56
2022-12-03T07:08:23.898Z,0.59
2022-12-03T07:08:55.348Z,0.57
2022-12-03T07:09:26.866Z,0.55
2022-12-03T07:09:58.568Z,0.54
2022-12-03T07:10:30.046Z,0.51
2022-12-03T07:11:01.500Z,0.51
2022-12-03T07:11:33.243Z,0.49
2022-12-03T07:12:04.944Z,0.51
2022-12-03T07:12:36.500Z,0.52
2022-12-03T07:13:07.989Z,0.54
2022-12-03T07:13:39.446Z,0.52
2022-12-03T07:14:11.384Z,0.55
2022-12-03T07:14:43.287Z,0.58
2022-12-03T07:15:14.845Z,0.58
2022-12-03T07:15:46.327Z,0.56
2022-12-03T07:16:17.890Z,0.56
2022-12-03T07:16:49.413Z,0.58
2022-12-03T07:17:21.071Z,0.56
2022-12-03T07:17:52.553Z,0.55
2022-12-03T07:18:24.016Z,0.59
2022-12-03T07:18:56.044Z,0.55
2022-12-03T07:19:32.280Z,0.55